Wetterdaten: Freitag, 13.03.2015
Datum Zeit Temp. A. Mod.Schuppen Waschkche Feuchte A. Luftdruck Regen Wind Richtung Richtung Sonnenschein Helligkeit Solar
13.03.2015 00:03 5,3 C 1,3 C 9,0 C 70 % 1026,1 hPa 0,0 l/m 17,4 km/h (3 Bft) O45 95 0 min 0 lux 0 W/m
13.03.2015 00:08 5,2 C 1,4 C 9,0 C 70 % 1026,2 hPa 0,0 l/m 19,5 km/h (3 Bft) O45 80 0 min 0 lux 0 W/m
13.03.2015 00:13 5,5 C 1,4 C 9,0 C 70 % 1026,1 hPa 0,0 l/m 9,1 km/h (2 Bft) O-SO22.5 105 0 min 0 lux 0 W/m
13.03.2015 00:18 5,4 C 1,3 C 9,0 C 70 % 1026,1 hPa 0,0 l/m 12,8 km/h (3 Bft) O22.5 85 0 min 0 lux 0 W/m
13.03.2015 00:23 5,3 C 1,3 C 9,0 C 70 % 1026,1 hPa 0,0 l/m 17,4 km/h (3 Bft) O45 95 0 min 0 lux 0 W/m
13.03.2015 00:28 5,2 C 1,4 C 9,0 C 70 % 1026,2 hPa 0,0 l/m 19,5 km/h (3 Bft) O45 80 0 min 0 lux 0 W/m
13.03.2015 00:33 5,3 C 1,7 C 9,0 C 70 % 1026,1 hPa 0,0 l/m 16,5 km/h (3 Bft) O-NO45 65 0 min 0 lux 0 W/m
13.03.2015 00:38 5,2 C 1,7 C 9,0 C 70 % 1026,2 hPa 0,0 l/m 13,3 km/h (3 Bft) O-NO22.5 75 0 min 0 lux 0 W/m
13.03.2015 00:43 5,2 C 1,6 C 9,0 C 70 % 1026,2 hPa 0,0 l/m 9,4 km/h (2 Bft) O-NO22.5 75 0 min 0 lux 0 W/m
13.03.2015 00:48 4,9 C 1,2 C 9,0 C 71 % 1026,2 hPa 0,0 l/m 12,6 km/h (3 Bft) O45 90 0 min 0 lux 0 W/m
13.03.2015 00:53 5,3 C 1,7 C 9,0 C 70 % 1026,1 hPa 0,0 l/m 16,5 km/h (3 Bft) O-NO45 65 0 min 0 lux 0 W/m
13.03.2015 00:58 5,2 C 1,7 C 9,0 C 70 % 1026,2 hPa 0,0 l/m 13,3 km/h (3 Bft) O-NO22.5 75 0 min 0 lux 0 W/m
13.03.2015 01:03 5,2 C 1,6 C 9,0 C 70 % 1026,2 hPa 0,0 l/m 9,4 km/h (2 Bft) O-NO22.5 75 0 min 0 lux 0 W/m
13.03.2015 01:09 4,9 C 1,2 C 9,0 C 71 % 1026,2 hPa 0,0 l/m 12,6 km/h (3 Bft) O45 90 0 min 0 lux 0 W/m
13.03.2015 01:14 4,3 C 0,1 C 9,0 C 73 % 1026,2 hPa 0,0 l/m 1,6 km/h (1 Bft) O22.5 85 0 min 0 lux 0 W/m
13.03.2015 01:19 4,1 C 0,0 C 9,0 C 73 % 1026,2 hPa 0,0 l/m 4,5 km/h (1 Bft) O-SO22.5 105 0 min 0 lux 0 W/m
13.03.2015 01:24 4,1 C -0,6 C 9,0 C 73 % 1026,2 hPa 0,0 l/m 0,2 km/h (0 Bft) SO 130 0 min 0 lux 0 W/m
13.03.2015 01:29 3,9 C -1,1 C 9,0 C 72 % 1026,2 hPa 0,0 l/m 0,0 km/h (0 Bft) SO 130 0 min 0 lux 0 W/m
13.03.2015 01:34 4,3 C 0,1 C 9,0 C 73 % 1026,2 hPa 0,0 l/m 1,6 km/h (1 Bft) O22.5 85 0 min 0 lux 0 W/m
13.03.2015 01:39 4,1 C 0,0 C 9,0 C 73 % 1026,2 hPa 0,0 l/m 4,5 km/h (1 Bft) O-SO22.5 105 0 min 0 lux 0 W/m
13.03.2015 01:44 4,1 C -0,6 C 9,0 C 73 % 1026,2 hPa 0,0 l/m 0,2 km/h (0 Bft) SO 130 0 min 0 lux 0 W/m
13.03.2015 01:49 3,9 C -1,1 C 9,0 C 72 % 1026,2 hPa 0,0 l/m 0,0 km/h (0 Bft) SO 130 0 min 0 lux 0 W/m
13.03.2015 01:54 2,9 C -1,7 C 8,8 C 73 % 1026,2 hPa 0,0 l/m 0,0 km/h (0 Bft) SO 130 0 min 0 lux 0 W/m
13.03.2015 01:59 2,9 C -1,9 C 8,8 C 73 % 1026,2 hPa 0,0 l/m 0,0 km/h (0 Bft) SO 130 0 min 0 lux 0 W/m
13.03.2015 02:04 2,6 C -1,9 C 8,8 C 74 % 1026,2 hPa 0,0 l/m 0,0 km/h (0 Bft) SO 130 0 min 0 lux 0 W/m
13.03.2015 02:09 2,7 C -1,9 C 8,8 C 75 % 1026,2 hPa 0,0 l/m 0,0 km/h (0 Bft) SO 130 0 min 0 lux 0 W/m
13.03.2015 02:14 2,9 C -1,7 C 8,8 C 73 % 1026,2 hPa 0,0 l/m 0,0 km/h (0 Bft) SO 130 0 min 0 lux 0 W/m
13.03.2015 02:19 2,9 C -1,9 C 8,8 C 73 % 1026,2 hPa 0,0 l/m 0,0 km/h (0 Bft) SO 130 0 min 0 lux 0 W/m
13.03.2015 02:24 2,6 C -1,9 C 8,8 C 74 % 1026,2 hPa 0,0 l/m 0,0 km/h (0 Bft) SO 130 0 min 0 lux 0 W/m
13.03.2015 02:29 2,7 C -1,9 C 8,8 C 75 % 1026,2 hPa 0,0 l/m 0,0 km/h (0 Bft) SO 130 0 min 0 lux 0 W/m
13.03.2015 02:34 2,8 C -1,0 C 8,8 C 78 % 1026,2 hPa 0,0 l/m 8,9 km/h (2 Bft) O22.5 80 0 min 0 lux 0 W/m
13.03.2015 02:39 2,9 C -1,2 C 8,8 C 78 % 1026,2 hPa 0,0 l/m 12,4 km/h (2 Bft) O22.5 80 0 min 0 lux 0 W/m
13.03.2015 02:44 2,9 C -1,3 C 8,8 C 78 % 1026,2 hPa 0,0 l/m 10,5 km/h (2 Bft) O22.5 85 0 min 0 lux 0 W/m
13.03.2015 02:49 2,9 C -1,2 C 8,8 C 78 % 1026,2 hPa 0,0 l/m 10,0 km/h (2 Bft) O45 95 0 min 0 lux 0 W/m
13.03.2015 02:54 2,8 C -1,0 C 8,8 C 78 % 1026,2 hPa 0,0 l/m 8,9 km/h (2 Bft) O22.5 80 0 min 0 lux 0 W/m
13.03.2015 02:59 2,9 C -1,2 C 8,8 C 78 % 1026,2 hPa 0,0 l/m 12,4 km/h (2 Bft) O22.5 80 0 min 0 lux 0 W/m
13.03.2015 03:04 2,9 C -1,3 C 8,8 C 78 % 1026,2 hPa 0,0 l/m 10,5 km/h (2 Bft) O22.5 85 0 min 0 lux 0 W/m
13.03.2015 03:09 2,9 C -1,2 C 8,8 C 78 % 1026,2 hPa 0,0 l/m 10,0 km/h (2 Bft) O45 95 0 min 0 lux 0 W/m
13.03.2015 03:14 2,6 C -1,3 C 8,8 C 80 % 1026,2 hPa 0,0 l/m 7,0 km/h (2 Bft) O22.5 95 0 min 0 lux 0 W/m
13.03.2015 03:19 2,5 C -1,2 C 8,7 C 80 % 1026,2 hPa 0,0 l/m 9,4 km/h (2 Bft) O22.5 80 0 min 0 lux 0 W/m
13.03.2015 03:24 2,4 C -1,5 C 8,7 C 80 % 1026,2 hPa 0,0 l/m 10,5 km/h (2 Bft) O45 100 0 min 0 lux 0 W/m
13.03.2015 03:29 2,3 C -1,5 C 8,7 C 81 % 1026,2 hPa 0,0 l/m 11,0 km/h (2 Bft) O45 85 0 min 0 lux 0 W/m
13.03.2015 03:34 2,6 C -1,3 C 8,8 C 80 % 1026,2 hPa 0,0 l/m 7,0 km/h (2 Bft) O22.5 95 0 min 0 lux 0 W/m
13.03.2015 03:39 2,5 C -1,2 C 8,7 C 80 % 1026,2 hPa 0,0 l/m 9,4 km/h (2 Bft) O22.5 80 0 min 0 lux 0 W/m
13.03.2015 03:44 2,4 C -1,5 C 8,7 C 80 % 1026,2 hPa 0,0 l/m 10,5 km/h (2 Bft) O45 100 0 min 0 lux 0 W/m
13.03.2015 03:49 2,3 C -1,5 C 8,7 C 81 % 1026,2 hPa 0,0 l/m 11,0 km/h (2 Bft) O45 85 0 min 0 lux 0 W/m
13.03.2015 03:54 2,0 C -2,1 C 8,7 C 81 % 1026,2 hPa 0,0 l/m 7,2 km/h (2 Bft) O-SO22.5 105 0 min 0 lux 0 W/m
13.03.2015 03:59 1,9 C -2,2 C 8,7 C 81 % 1026,2 hPa 0,0 l/m 6,3 km/h (2 Bft) O 95 0 min 0 lux 0 W/m
13.03.2015 04:04 1,9 C -2,2 C 8,7 C 81 % 1026,2 hPa 0,0 l/m 6,1 km/h (2 Bft) O22.5 80 0 min 0 lux 0 W/m
13.03.2015 04:09 1,9 C -2,3 C 8,7 C 81 % 1026,2 hPa 0,0 l/m 9,2 km/h (2 Bft) O 85 0 min 0 lux 0 W/m
13.03.2015 04:14 2,0 C -2,1 C 8,7 C 81 % 1026,2 hPa 0,0 l/m 7,2 km/h (2 Bft) O-SO22.5 105 0 min 0 lux 0 W/m
13.03.2015 04:19 1,9 C -2,2 C 8,7 C 81 % 1026,2 hPa 0,0 l/m 6,3 km/h (2 Bft) O 95 0 min 0 lux 0 W/m
13.03.2015 04:24 1,9 C -2,2 C 8,7 C 81 % 1026,2 hPa 0,0 l/m 6,1 km/h (2 Bft) O22.5 80 0 min 0 lux 0 W/m
13.03.2015 04:29 1,9 C -2,3 C 8,7 C 81 % 1026,2 hPa 0,0 l/m 9,2 km/h (2 Bft) O 85 0 min 0 lux 0 W/m
13.03.2015 04:34 1,5 C -2,7 C 8,7 C 82 % 1026,2 hPa 0,0 l/m 0,0 km/h (0 Bft) O-SO 105 0 min 0 lux 0 W/m
13.03.2015 04:39 1,4 C -3,0 C 8,7 C 81 % 1026,2 hPa 0,0 l/m 0,0 km/h (0 Bft) O 100 0 min 0 lux 0 W/m
13.03.2015 04:44 1,3 C -3,1 C 8,7 C 81 % 1026,2 hPa 0,0 l/m 0,0 km/h (0 Bft) O 100 0 min 0 lux 0 W/m
13.03.2015 04:49 1,3 C -3,0 C 8,7 C 82 % 1026,2 hPa 0,0 l/m 0,0 km/h (0 Bft) O 100 0 min 0 lux 0 W/m
13.03.2015 04:54 1,5 C -2,7 C 8,7 C 82 % 1026,2 hPa 0,0 l/m 0,0 km/h (0 Bft) O-SO 105 0 min 0 lux 0 W/m
13.03.2015 04:59 1,4 C -3,0 C 8,7 C 81 % 1026,2 hPa 0,0 l/m 0,0 km/h (0 Bft) O 100 0 min 0 lux 0 W/m
13.03.2015 05:04 1,3 C -3,1 C 8,7 C 81 % 1026,2 hPa 0,0 l/m 0,0 km/h (0 Bft) O 100 0 min 0 lux 0 W/m
13.03.2015 05:09 1,3 C -3,0 C 8,7 C 82 % 1026,2 hPa 0,0 l/m 0,0 km/h (0 Bft) O 100 0 min 0 lux 0 W/m
13.03.2015 05:14 1,1 C -2,9 C 8,7 C 82 % 1025,2 hPa 0,0 l/m 4,4 km/h (1 Bft) O 100 0 min 0 lux 0 W/m
13.03.2015 05:19 1,0 C -3,0 C 8,7 C 82 % 1025,2 hPa 0,0 l/m 5,7 km/h (2 Bft) O 90 0 min 0 lux 0 W/m
13.03.2015 05:24 0,9 C -3,0 C 8,7 C 83 % 1025,2 hPa 0,0 l/m 3,9 km/h (1 Bft) O 85 0 min 0 lux 0 W/m
13.03.2015 05:29 1,0 C -3,1 C 8,7 C 83 % 1025,2 hPa 0,0 l/m 0,8 km/h (0 Bft) O 85 0 min 0 lux 0 W/m
13.03.2015 05:34 1,1 C -2,9 C 8,7 C 82 % 1025,2 hPa 0,0 l/m 4,4 km/h (1 Bft) O 100 0 min 0 lux 0 W/m
13.03.2015 05:39 1,0 C -3,0 C 8,7 C 82 % 1025,2 hPa 0,0 l/m 5,7 km/h (2 Bft) O 90 0 min 0 lux 0 W/m
13.03.2015 05:44 0,9 C -3,0 C 8,7 C 83 % 1025,2 hPa 0,0 l/m 3,9 km/h (1 Bft) O 85 0 min 0 lux 0 W/m
13.03.2015 05:49 1,0 C -3,1 C 8,7 C 83 % 1025,2 hPa 0,0 l/m 0,8 km/h (0 Bft) O 85 0 min 0 lux 0 W/m
13.03.2015 05:54 0,9 C -3,6 C 8,7 C 83 % 1025,2 hPa 0,0 l/m 0,0 km/h (0 Bft) O 85 0 min 0 lux 0 W/m
13.03.2015 05:59 0,9 C -3,5 C 8,5 C 83 % 1025,2 hPa 0,0 l/m 4,8 km/h (1 Bft) O 80 0 min 0 lux 0 W/m
13.03.2015 06:04 0,9 C -3,3 C 8,5 C 83 % 1025,2 hPa 0,0 l/m 3,1 km/h (1 Bft) O 80 0 min 0 lux 0 W/m
13.03.2015 06:08 0,7 C -3,5 C 8,5 C 83 % 1025,2 hPa 0,0 l/m 5,5 km/h (2 Bft) O 80 0 min 0 lux 0 W/m
13.03.2015 06:13 0,9 C -3,6 C 8,7 C 83 % 1025,2 hPa 0,0 l/m 0,0 km/h (0 Bft) O 85 0 min 0 lux 0 W/m
13.03.2015 06:18 0,9 C -3,5 C 8,5 C 83 % 1025,2 hPa 0,0 l/m 4,8 km/h (1 Bft) O 80 0 min 0 lux 0 W/m
13.03.2015 06:23 0,9 C -3,3 C 8,5 C 83 % 1025,2 hPa 0,0 l/m 3,1 km/h (1 Bft) O 80 0 min 0 lux 0 W/m
13.03.2015 06:28 0,7 C -3,5 C 8,5 C 83 % 1025,2 hPa 0,0 l/m 5,5 km/h (2 Bft) O 80 0 min 0 lux 0 W/m
13.03.2015 06:33 0,7 C -3,1 C 8,5 C 83 % 1025,2 hPa 0,0 l/m 4,6 km/h (1 Bft) O 80 0 min 592 lux 0 W/m
13.03.2015 06:38 0,7 C -2,9 C 8,5 C 83 % 1025,2 hPa 0,0 l/m 4,6 km/h (1 Bft) O-NO 75 0 min 900 lux 0 W/m
13.03.2015 06:43 0,7 C -2,7 C 8,5 C 83 % 1025,2 hPa 0,0 l/m 5,9 km/h (2 Bft) O22.5 85 0 min 900 lux 0 W/m
13.03.2015 06:48 0,8 C -2,8 C 8,5 C 83 % 1025,2 hPa 0,0 l/m 5,8 km/h (2 Bft) O-NO22.5 75 0 min 1,48 klux 0 W/m
13.03.2015 06:53 0,7 C -3,1 C 8,5 C 83 % 1025,2 hPa 0,0 l/m 4,6 km/h (1 Bft) O 80 0 min 592 lux 0 W/m
13.03.2015 06:58 0,7 C -2,9 C 8,5 C 83 % 1025,2 hPa 0,0 l/m 4,6 km/h (1 Bft) O-NO 75 0 min 900 lux 0 W/m
13.03.2015 07:03 0,7 C -2,7 C 8,5 C 83 % 1025,2 hPa 0,0 l/m 5,9 km/h (2 Bft) O22.5 85 0 min 900 lux 6 W/m
13.03.2015 07:08 0,8 C -2,8 C 8,5 C 83 % 1025,2 hPa 0,0 l/m 5,8 km/h (2 Bft) O-NO22.5 75 0 min 1,48 klux 10 W/m
13.03.2015 07:13 1,2 C -1,6 C 8,3 C 84 % 1025,2 hPa 0,0 l/m 11,6 km/h (2 Bft) O22.5 80 5 min 4,74 klux 32 W/m
13.03.2015 07:19 1,2 C -0,7 C 8,3 C 84 % 1025,2 hPa 0,0 l/m 12,8 km/h (3 Bft) O22.5 80 6 min 5,31 klux 36 W/m
13.03.2015 07:24 1,2 C -0,5 C 8,3 C 84 % 1025,2 hPa 0,0 l/m 9,9 km/h (2 Bft) O22.5 85 5 min 7,32 klux 50 W/m
13.03.2015 07:29 1,5 C 0,2 C 8,3 C 83 % 1026,2 hPa 0,0 l/m 11,9 km/h (2 Bft) O22.5 80 5 min 9,4 klux 64 W/m
13.03.2015 07:34 1,2 C -1,6 C 8,3 C 84 % 1025,2 hPa 0,0 l/m 11,6 km/h (2 Bft) O22.5 80 0 min 4,74 klux 32 W/m
13.03.2015 07:39 1,2 C -0,7 C 8,3 C 84 % 1025,2 hPa 0,0 l/m 12,8 km/h (3 Bft) O22.5 80 0 min 5,31 klux 36 W/m
13.03.2015 07:44 1,2 C -0,5 C 8,3 C 84 % 1025,2 hPa 0,0 l/m 9,9 km/h (2 Bft) O22.5 85 0 min 7,32 klux 50 W/m
13.03.2015 07:49 1,5 C 0,2 C 8,3 C 83 % 1026,2 hPa 0,0 l/m 11,9 km/h (2 Bft) O22.5 80 0 min 9,4 klux 64 W/m
13.03.2015 07:54 2,0 C 2,5 C 8,3 C 81 % 1025,2 hPa 0,0 l/m 17,7 km/h (3 Bft) O45 90 5 min 18,2 klux 124 W/m
13.03.2015 07:59 2,0 C 3,2 C 8,3 C 81 % 1025,2 hPa 0,0 l/m 13,6 km/h (3 Bft) O45 85 5 min 19,8 klux 135 W/m
13.03.2015 08:04 2,2 C 3,8 C 8,3 C 81 % 1025,2 hPa 0,0 l/m 12,8 km/h (3 Bft) O22.5 100 5 min 21,1 klux 144 W/m
13.03.2015 08:09 2,3 C 3,8 C 8,3 C 80 % 1025,2 hPa 0,0 l/m 11,8 km/h (2 Bft) O45 90 5 min 22,1 klux 151 W/m
13.03.2015 08:14 2,0 C 2,5 C 8,3 C 81 % 1025,2 hPa 0,0 l/m 17,7 km/h (3 Bft) O45 90 5 min 18,2 klux 124 W/m
13.03.2015 08:19 2,0 C 3,2 C 8,3 C 81 % 1025,2 hPa 0,0 l/m 13,6 km/h (3 Bft) O45 85 5 min 19,8 klux 135 W/m
13.03.2015 08:24 2,2 C 3,8 C 8,3 C 81 % 1025,2 hPa 0,0 l/m 12,8 km/h (3 Bft) O22.5 100 5 min 21,1 klux 144 W/m
13.03.2015 08:29 2,3 C 3,8 C 8,3 C 80 % 1025,2 hPa 0,0 l/m 11,8 km/h (2 Bft) O45 90 5 min 22,1 klux 151 W/m
13.03.2015 08:34 3,1 C 4,7 C 8,2 C 77 % 1025,2 hPa 0,0 l/m 17,5 km/h (3 Bft) O22.5 95 5 min 28,0 klux 192 W/m
13.03.2015 08:39 3,5 C 4,9 C 8,2 C 76 % 1025,2 hPa 0,0 l/m 20,1 km/h (4 Bft) O22.5 80 5 min 28,3 klux 194 W/m
13.03.2015 08:44 3,8 C 5,0 C 8,2 C 74 % 1025,2 hPa 0,0 l/m 16,7 km/h (3 Bft) O-NO45 70 5 min 30,1 klux 206 W/m
13.03.2015 08:49 4,0 C 5,6 C 8,2 C 74 % 1025,2 hPa 0,0 l/m 13,1 km/h (3 Bft) O22.5 85 5 min 30,7 klux 210 W/m
13.03.2015 08:54 3,1 C 4,7 C 8,2 C 77 % 1025,2 hPa 0,0 l/m 17,5 km/h (3 Bft) O22.5 95 5 min 28,0 klux 192 W/m
13.03.2015 08:59 3,5 C 4,9 C 8,2 C 76 % 1025,2 hPa 0,0 l/m 20,1 km/h (4 Bft) O22.5 80 5 min 28,3 klux 194 W/m
13.03.2015 09:04 3,8 C 5,0 C 8,2 C 74 % 1025,2 hPa 0,0 l/m 16,7 km/h (3 Bft) O-NO45 70 5 min 30,1 klux 206 W/m
13.03.2015 09:09 4,0 C 5,6 C 8,2 C 74 % 1025,2 hPa 0,0 l/m 13,1 km/h (3 Bft) O22.5 85 5 min 30,7 klux 210 W/m
13.03.2015 09:14 5,3 C 5,6 C 8,2 C 69 % 1025,1 hPa 0,0 l/m 9,8 km/h (2 Bft) O-SO45 115 5 min 37,0 klux 253 W/m
13.03.2015 09:19 5,3 C 5,6 C 8,2 C 68 % 1025,1 hPa 0,0 l/m 12,5 km/h (2 Bft) O-SO67.5 110 5 min 38,1 klux 261 W/m
13.03.2015 09:24 5,4 C 16,7 C 8,2 C 67 % 1025,1 hPa 0,0 l/m 13,7 km/h (3 Bft) SO45 130 5 min 38,4 klux 263 W/m
13.03.2015 09:29 5,4 C 18,5 C 8,2 C 67 % 1025,1 hPa 0,0 l/m 10,4 km/h (2 Bft) O-SO22.5 120 5 min 39,5 klux 270 W/m
13.03.2015 09:34 5,3 C 14,3 C 8,2 C 69 % 1025,1 hPa 0,0 l/m 9,8 km/h (2 Bft) O-SO45 115 5 min 37,0 klux 253 W/m
13.03.2015 09:39 5,3 C 14,3 C 8,2 C 68 % 1025,1 hPa 0,0 l/m 12,5 km/h (2 Bft) O-SO67.5 110 5 min 38,1 klux 261 W/m
13.03.2015 09:44 5,4 C 16,7 C 8,2 C 67 % 1025,1 hPa 0,0 l/m 13,7 km/h (3 Bft) SO45 130 5 min 38,4 klux 263 W/m
13.03.2015 09:49 5,4 C 18,5 C 8,2 C 67 % 1025,1 hPa 0,0 l/m 10,4 km/h (2 Bft) O-SO22.5 120 5 min 39,5 klux 270 W/m
13.03.2015 09:54 6,1 C 22,1 C 8,2 C 64 % 1025,1 hPa 0,0 l/m 11,1 km/h (2 Bft) O-SO67.5 110 5 min 43,7 klux 299 W/m
13.03.2015 09:59 6,1 C 22,1 C 8,2 C 64 % 1025,1 hPa 0,0 l/m 10,5 km/h (2 Bft) SO45 130 5 min 44,8 klux 306 W/m
13.03.2015 10:04 6,6 C 23,4 C 8,2 C 64 % 1025,1 hPa 0,0 l/m 9,0 km/h (2 Bft) SO45 125 5 min 45,3 klux 310 W/m
13.03.2015 10:09 6,8 C 24,1 C 8,2 C 64 % 1025,1 hPa 0,0 l/m 10,4 km/h (2 Bft) O-SO45 115 5 min 45,9 klux 314 W/m
13.03.2015 10:14 6,1 C 22,1 C 8,2 C 64 % 1025,1 hPa 0,0 l/m 11,1 km/h (2 Bft) O-SO67.5 110 5 min 43,7 klux 299 W/m
13.03.2015 10:19 6,1 C 22,1 C 8,2 C 64 % 1025,1 hPa 0,0 l/m 10,5 km/h (2 Bft) SO45 130 5 min 44,8 klux 306 W/m
13.03.2015 10:24 6,6 C 23,4 C 8,2 C 64 % 1025,1 hPa 0,0 l/m 9,0 km/h (2 Bft) SO45 125 5 min 45,3 klux 310 W/m
13.03.2015 10:29 6,8 C 24,1 C 8,2 C 64 % 1025,1 hPa 0,0 l/m 10,4 km/h (2 Bft) O-SO45 115 5 min 45,9 klux 314 W/m
13.03.2015 10:34 7,5 C 27,8 C 8,1 C 62 % 1025,1 hPa 0,0 l/m 9,2 km/h (2 Bft) SO22.5 140 5 min 49,8 klux 341 W/m
13.03.2015 10:39 7,7 C 28,5 C 8,1 C 60 % 1025,1 hPa 0,0 l/m 4,3 km/h (1 Bft) SO22.5 140 5 min 51,8 klux 354 W/m
13.03.2015 10:44 7,8 C 28,7 C 8,1 C 60 % 1025,1 hPa 0,0 l/m 11,8 km/h (2 Bft) O-SO45 105 5 min 52,0 klux 356 W/m
13.03.2015 10:49 7,8 C 29,6 C 8,1 C 60 % 1025,1 hPa 0,0 l/m 7,2 km/h (2 Bft) NO22.5 45 5 min 53,2 klux 364 W/m
13.03.2015 10:54 7,5 C 27,8 C 8,1 C 62 % 1025,1 hPa 0,0 l/m 9,2 km/h (2 Bft) SO22.5 140 5 min 49,8 klux 341 W/m
13.03.2015 10:59 7,7 C 28,5 C 8,1 C 60 % 1025,1 hPa 0,0 l/m 4,3 km/h (1 Bft) SO22.5 140 5 min 51,8 klux 354 W/m
13.03.2015 11:04 7,8 C 28,7 C 8,1 C 60 % 1025,1 hPa 0,0 l/m 11,8 km/h (2 Bft) O-SO45 105 5 min 52,0 klux 356 W/m
13.03.2015 11:09 7,8 C 29,6 C 8,1 C 60 % 1025,1 hPa 0,0 l/m 7,2 km/h (2 Bft) NO22.5 45 5 min 53,2 klux 364 W/m
13.03.2015 11:14 8,7 C 33,0 C 8,1 C 57 % 1024,1 hPa 0,0 l/m 10,1 km/h (2 Bft) O-SO67.5 115 5 min 58,8 klux 402 W/m
13.03.2015 11:19 8,9 C 34,0 C 8,1 C 56 % 1024,1 hPa 0,0 l/m 14,3 km/h (3 Bft) O-SO67.5 115 5 min 61,7 klux 422 W/m
13.03.2015 11:24 8,7 C 31,3 C 8,1 C 55 % 1024,1 hPa 0,0 l/m 13,1 km/h (3 Bft) O-NO45 70 5 min 62,1 klux 425 W/m
13.03.2015 11:29 8,3 C 26,5 C 8,1 C 56 % 1024,1 hPa 0,0 l/m 11,1 km/h (2 Bft) O67.5 85 0 min 24,4 klux 167 W/m
13.03.2015 11:34 8,7 C 33,0 C 8,1 C 57 % 1024,1 hPa 0,0 l/m 10,1 km/h (2 Bft) O-SO67.5 115 5 min 58,8 klux 402 W/m
13.03.2015 11:39 8,9 C 34,0 C 8,1 C 56 % 1024,1 hPa 0,0 l/m 14,3 km/h (3 Bft) O-SO67.5 115 5 min 61,7 klux 422 W/m
13.03.2015 11:44 8,7 C 31,3 C 8,1 C 55 % 1024,1 hPa 0,0 l/m 13,1 km/h (3 Bft) O-NO45 70 5 min 62,1 klux 425 W/m
13.03.2015 11:49 8,3 C 26,5 C 8,1 C 56 % 1024,1 hPa 0,0 l/m 11,1 km/h (2 Bft) O67.5 85 0 min 24,4 klux 167 W/m
13.03.2015 11:54 7,8 C 26,5 C 8,2 C 57 % 1024,1 hPa 0,0 l/m 9,5 km/h (2 Bft) O-SO67.5 110 0 min 21,4 klux 146 W/m
13.03.2015 11:59 7,9 C 16,6 C 8,2 C 58 % 1024,1 hPa 0,0 l/m 9,5 km/h (2 Bft) O-SO67.5 110 0 min 21,4 klux 146 W/m
13.03.2015 12:04 7,9 C 16,5 C 8,2 C 58 % 1024,1 hPa 0,0 l/m 17,5 km/h (3 Bft) O45 95 0 min 25,3 klux 173 W/m
13.03.2015 12:09 8,0 C 16,9 C 8,2 C 58 % 1024,1 hPa 0,0 l/m 19,0 km/h (3 Bft) O45 80 0 min 26,9 klux 184 W/m
13.03.2015 12:14 7,8 C 16,2 C 8,2 C 57 % 1024,1 hPa 0,0 l/m 9,5 km/h (2 Bft) O-SO67.5 110 0 min 21,4 klux 146 W/m
13.03.2015 12:19 7,9 C 16,6 C 8,2 C 58 % 1024,1 hPa 0,0 l/m 9,5 km/h (2 Bft) O-SO67.5 110 0 min 21,4 klux 146 W/m
13.03.2015 12:24 7,9 C 16,5 C 8,2 C 58 % 1024,1 hPa 0,0 l/m 17,5 km/h (3 Bft) O45 95 0 min 25,3 klux 173 W/m
13.03.2015 12:28 8,0 C 16,9 C 8,2 C 58 % 1024,1 hPa 0,0 l/m 19,0 km/h (3 Bft) O45 80 0 min 26,9 klux 184 W/m
13.03.2015 12:33 8,1 C 17,6 C 8,2 C 57 % 1024,1 hPa 0,0 l/m 16,5 km/h (3 Bft) O45 90 0 min 30,6 klux 209 W/m
13.03.2015 12:38 8,2 C 18,4 C 8,2 C 57 % 1024,1 hPa 0,0 l/m 9,0 km/h (2 Bft) SO45 135 5 min 54,8 klux 375 W/m
13.03.2015 12:43 8,8 C 24,3 C 8,2 C 57 % 1024,1 hPa 0,0 l/m 8,4 km/h (2 Bft) SO67.5 135 5 min 62,3 klux 426 W/m
13.03.2015 12:48 9,5 C 28,9 C 8,2 C 53 % 1024,1 hPa 0,0 l/m 24,8 km/h (4 Bft) O-NO67.5 70 5 min 67,0 klux 458 W/m
13.03.2015 12:53 8,1 C 28,9 C 8,2 C 57 % 1024,1 hPa 0,0 l/m 16,5 km/h (3 Bft) O45 90 0 min 30,6 klux 209 W/m
13.03.2015 12:58 8,2 C 18,4 C 8,2 C 57 % 1024,1 hPa 0,0 l/m 9,0 km/h (2 Bft) SO45 135 5 min 54,8 klux 375 W/m
13.03.2015 13:03 8,8 C 24,3 C 8,2 C 57 % 1024,1 hPa 0,0 l/m 8,4 km/h (2 Bft) SO67.5 135 5 min 62,3 klux 426 W/m
13.03.2015 13:08 9,5 C 28,9 C 8,2 C 53 % 1024,1 hPa 0,0 l/m 24,8 km/h (4 Bft) O-NO67.5 70 5 min 67,0 klux 458 W/m
13.03.2015 13:13 9,3 C 26,0 C 8,2 C 50 % 1023,1 hPa 0,0 l/m 2,0 km/h (1 Bft) SO45 130 0 min 33,7 klux 231 W/m
13.03.2015 13:18 9,2 C 23,3 C 8,2 C 51 % 1023,1 hPa 0,0 l/m 2,1 km/h (1 Bft) O-SO22.5 110 0 min 25,6 klux 175 W/m
13.03.2015 13:23 9,1 C 20,2 C 8,2 C 52 % 1023,1 hPa 0,0 l/m 13,3 km/h (3 Bft) O22.5 90 0 min 23,7 klux 162 W/m
13.03.2015 13:28 9,4 C 21,5 C 8,2 C 51 % 1023,1 hPa 0,0 l/m 14,5 km/h (3 Bft) O-SO67.5 105 0 min 43,1 klux 295 W/m
13.03.2015 13:33 9,3 C 26,0 C 8,2 C 50 % 1023,1 hPa 0,0 l/m 2,0 km/h (1 Bft) SO45 130 0 min 33,7 klux 231 W/m
13.03.2015 13:38 9,2 C 23,3 C 8,2 C 51 % 1023,1 hPa 0,0 l/m 2,1 km/h (1 Bft) O-SO22.5 110 0 min 25,6 klux 175 W/m
13.03.2015 13:44 9,1 C 20,2 C 8,2 C 52 % 1023,1 hPa 0,0 l/m 13,3 km/h (3 Bft) O22.5 90 0 min 23,7 klux 162 W/m
13.03.2015 13:49 9,4 C 21,5 C 8,2 C 51 % 1023,1 hPa 0,0 l/m 14,5 km/h (3 Bft) O-SO67.5 105 0 min 43,1 klux 295 W/m
13.03.2015 13:54 10,0 C 25,0 C 8,2 C 49 % 1023,0 hPa 0,0 l/m 14,1 km/h (3 Bft) SO67.5 130 5 min 58,4 klux 399 W/m
13.03.2015 13:59 10,0 C 30,0 C 8,2 C 49 % 1023,0 hPa 0,0 l/m 15,9 km/h (3 Bft) SO67.5 135 5 min 58,4 klux 399 W/m
13.03.2015 14:04 10,5 C 31,7 C 8,3 C 46 % 1023,0 hPa 0,0 l/m 13,5 km/h (3 Bft) SO45 130 5 min 59,7 klux 408 W/m
13.03.2015 14:09 10,5 C 32,0 C 8,3 C 45 % 1023,0 hPa 0,0 l/m 13,9 km/h (3 Bft) S-SO45 150 5 min 56,3 klux 385 W/m
13.03.2015 14:14 10,0 C 32,0 C 8,2 C 49 % 1023,0 hPa 0,0 l/m 14,1 km/h (3 Bft) SO67.5 130 5 min 58,4 klux 399 W/m
13.03.2015 14:19 10,0 C 30,0 C 8,2 C 49 % 1023,0 hPa 0,0 l/m 15,9 km/h (3 Bft) SO67.5 135 5 min 58,4 klux 399 W/m
13.03.2015 14:24 10,5 C 31,7 C 8,3 C 46 % 1023,0 hPa 0,0 l/m 13,5 km/h (3 Bft) SO45 130 5 min 59,7 klux 408 W/m
13.03.2015 14:29 10,5 C 32,0 C 8,3 C 45 % 1023,0 hPa 0,0 l/m 13,9 km/h (3 Bft) S-SO45 150 5 min 56,3 klux 385 W/m
13.03.2015 14:34 10,0 C 32,0 C 8,3 C 48 % 1023,0 hPa 0,0 l/m 3,8 km/h (1 Bft) O-SO67.5 105 0 min 19,1 klux 131 W/m
13.03.2015 14:39 9,9 C 19,4 C 8,3 C 48 % 1023,0 hPa 0,0 l/m 17,3 km/h (3 Bft) O-SO67.5 115 0 min 19,1 klux 131 W/m
13.03.2015 14:44 9,6 C 16,8 C 8,3 C 48 % 1023,1 hPa 0,0 l/m 22,1 km/h (4 Bft) O45 100 0 min 15,8 klux 108 W/m
13.03.2015 14:49 9,6 C 17,0 C 8,3 C 48 % 1023,1 hPa 0,0 l/m 6,8 km/h (2 Bft) O-SO22.5 105 0 min 19,7 klux 135 W/m
13.03.2015 14:54 10,0 C 22,7 C 8,3 C 48 % 1023,0 hPa 0,0 l/m 3,8 km/h (1 Bft) O-SO67.5 105 0 min 19,1 klux 131 W/m
13.03.2015 14:59 9,9 C 19,4 C 8,3 C 48 % 1023,0 hPa 0,0 l/m 17,3 km/h (3 Bft) O-SO67.5 115 0 min 19,1 klux 131 W/m
13.03.2015 15:04 9,6 C 16,8 C 8,3 C 48 % 1023,1 hPa 0,0 l/m 22,1 km/h (4 Bft) O45 100 0 min 15,8 klux 108 W/m
13.03.2015 15:09 9,6 C 17,0 C 8,3 C 48 % 1023,1 hPa 0,0 l/m 6,8 km/h (2 Bft) O-SO22.5 105 0 min 19,7 klux 135 W/m
13.03.2015 15:14 9,8 C 19,8 C 8,4 C 45 % 1023,1 hPa 0,0 l/m 13,8 km/h (3 Bft) SO67.5 140 5 min 41,4 klux 283 W/m
13.03.2015 15:19 9,8 C 21,5 C 8,4 C 46 % 1023,1 hPa 0,0 l/m 7,0 km/h (2 Bft) SO45 140 5 min 41,7 klux 285 W/m
13.03.2015 15:24 9,9 C 22,3 C 8,4 C 45 % 1023,0 hPa 0,0 l/m 14,5 km/h (3 Bft) O-SO67.5 110 5 min 39,1 klux 267 W/m
13.03.2015 15:29 9,8 C 22,9 C 8,4 C 45 % 1023,1 hPa 0,0 l/m 17,0 km/h (3 Bft) S-SO67.5 150 5 min 38,3 klux 262 W/m
13.03.2015 15:34 9,8 C 19,8 C 8,4 C 45 % 1023,1 hPa 0,0 l/m 13,8 km/h (3 Bft) SO67.5 140 5 min 41,4 klux 283 W/m
13.03.2015 15:39 9,8 C 21,5 C 8,4 C 46 % 1023,1 hPa 0,0 l/m 7,0 km/h (2 Bft) SO45 140 5 min 41,7 klux 285 W/m
13.03.2015 15:44 9,9 C 22,3 C 8,4 C 45 % 1023,0 hPa 0,0 l/m 14,5 km/h (3 Bft) O-SO67.5 110 5 min 39,1 klux 267 W/m
13.03.2015 15:49 9,8 C 22,9 C 8,4 C 45 % 1023,1 hPa 0,0 l/m 17,0 km/h (3 Bft) S-SO67.5 150 5 min 38,3 klux 262 W/m
13.03.2015 15:54 9,8 C 21,3 C 8,5 C 45 % 1023,1 hPa 0,0 l/m 15,3 km/h (3 Bft) SO67.5 145 5 min 33,5 klux 229 W/m
13.03.2015 15:59 9,7 C 21,5 C 8,5 C 45 % 1023,1 hPa 0,0 l/m 14,6 km/h (3 Bft) SO67.5 130 5 min 33,2 klux 227 W/m
13.03.2015 16:04 9,5 C 20,4 C 8,5 C 45 % 1023,1 hPa 0,0 l/m 21,6 km/h (4 Bft) SO67.5 135 5 min 32,2 klux 220 W/m
13.03.2015 16:09 9,5 C 19,8 C 8,5 C 45 % 1023,1 hPa 0,0 l/m 18,6 km/h (3 Bft) SO67.5 125 5 min 31,4 klux 215 W/m
13.03.2015 16:14 9,8 C 21,3 C 8,5 C 45 % 1023,1 hPa 0,0 l/m 15,3 km/h (3 Bft) SO67.5 145 5 min 33,5 klux 229 W/m
13.03.2015 16:19 9,7 C 21,5 C 8,5 C 45 % 1023,1 hPa 0,0 l/m 14,6 km/h (3 Bft) SO67.5 130 5 min 33,2 klux 227 W/m
13.03.2015 16:24 9,5 C 20,4 C 8,5 C 45 % 1023,1 hPa 0,0 l/m 21,6 km/h (4 Bft) SO67.5 135 5 min 32,2 klux 220 W/m
13.03.2015 16:29 9,5 C 19,8 C 8,5 C 45 % 1023,1 hPa 0,0 l/m 18,6 km/h (3 Bft) SO67.5 125 5 min 31,4 klux 215 W/m
13.03.2015 16:34 9,4 C 17,7 C 8,5 C 44 % 1023,1 hPa 0,0 l/m 19,5 km/h (3 Bft) O-SO67.5 110 5 min 25,4 klux 174 W/m
13.03.2015 16:39 9,5 C 17,2 C 8,5 C 44 % 1023,1 hPa 0,0 l/m 14,8 km/h (3 Bft) O-SO45 105 5 min 25,7 klux 176 W/m
13.03.2015 16:44 9,5 C 16,9 C 8,5 C 44 % 1023,1 hPa 0,0 l/m 23,4 km/h (4 Bft) O67.5 80 5 min 24,8 klux 170 W/m
13.03.2015 16:49 9,3 C 16,3 C 8,6 C 45 % 1023,1 hPa 0,0 l/m 17,4 km/h (3 Bft) O-SO67.5 105 5 min 20,5 klux 140 W/m
13.03.2015 16:54 9,4 C 17,7 C 8,5 C 44 % 1023,1 hPa 0,0 l/m 19,5 km/h (3 Bft) O-SO67.5 110 5 min 25,4 klux 174 W/m
13.03.2015 16:59 9,5 C 17,2 C 8,5 C 44 % 1023,1 hPa 0,0 l/m 14,8 km/h (3 Bft) O-SO45 105 5 min 25,7 klux 176 W/m
13.03.2015 17:04 9,5 C 16,9 C 8,5 C 44 % 1023,1 hPa 0,0 l/m 23,4 km/h (4 Bft) O67.5 80 5 min 24,8 klux 170 W/m
13.03.2015 17:09 9,3 C 16,3 C 8,6 C 45 % 1023,1 hPa 0,0 l/m 17,4 km/h (3 Bft) O-SO67.5 105 5 min 20,5 klux 140 W/m
13.03.2015 17:14 8,3 C 16,3 C 8,6 C 46 % 1023,1 hPa 0,0 l/m 25,7 km/h (4 Bft) O67.5 100 0 min 4,57 klux 31 W/m
13.03.2015 17:19 8,0 C 7,3 C 8,6 C 47 % 1023,1 hPa 0,0 l/m 24,1 km/h (4 Bft) O67.5 80 0 min 4,91 klux 34 W/m
13.03.2015 17:24 8,0 C 7,2 C 8,6 C 46 % 1023,1 hPa 0,0 l/m 17,4 km/h (3 Bft) O45 90 0 min 5,14 klux 35 W/m
13.03.2015 17:29 8,0 C 7,1 C 8,5 C 47 % 1023,1 hPa 0,0 l/m 16,0 km/h (3 Bft) O67.5 80 0 min 5,32 klux 36 W/m
13.03.2015 17:34 8,3 C 8,2 C 8,6 C 46 % 1023,1 hPa 0,0 l/m 25,7 km/h (4 Bft) O67.5 100 0 min 4,57 klux 31 W/m
13.03.2015 17:39 8,0 C 7,3 C 8,6 C 47 % 1023,1 hPa 0,0 l/m 24,1 km/h (4 Bft) O67.5 80 0 min 4,91 klux 34 W/m
13.03.2015 17:44 8,0 C 7,2 C 8,6 C 46 % 1023,1 hPa 0,0 l/m 17,4 km/h (3 Bft) O45 90 0 min 5,14 klux 35 W/m
13.03.2015 17:49 8,0 C 7,1 C 8,5 C 47 % 1023,1 hPa 0,0 l/m 16,0 km/h (3 Bft) O67.5 80 0 min 5,32 klux 36 W/m
13.03.2015 17:54 8,0 C 6,8 C 8,5 C 47 % 1023,1 hPa 0,0 l/m 9,2 km/h (2 Bft) O67.5 95 0 min 1,41 klux 10 W/m
13.03.2015 17:59 8,0 C 6,8 C 8,5 C 47 % 1023,1 hPa 0,0 l/m 17,0 km/h (3 Bft) O67.5 95 0 min 844 lux 6 W/m
13.03.2015 18:04 8,0 C 6,8 C 8,5 C 47 % 1023,1 hPa 0,0 l/m 17,6 km/h (3 Bft) O22.5 90 0 min 553 lux 4 W/m
13.03.2015 18:09 8,0 C 6,7 C 8,5 C 48 % 1023,1 hPa 0,0 l/m 22,9 km/h (4 Bft) O67.5 85 0 min 395 lux 3 W/m
13.03.2015 18:14 8,0 C 6,8 C 8,5 C 47 % 1023,1 hPa 0,0 l/m 9,2 km/h (2 Bft) O67.5 95 0 min 1,41 klux 10 W/m
13.03.2015 18:19 8,0 C 6,8 C 8,5 C 47 % 1023,1 hPa 0,0 l/m 17,0 km/h (3 Bft) O67.5 95 0 min 844 lux 6 W/m
13.03.2015 18:24 8,0 C 6,8 C 8,5 C 47 % 1023,1 hPa 0,0 l/m 17,6 km/h (3 Bft) O22.5 90 0 min 553 lux 4 W/m
13.03.2015 18:29 8,0 C 6,7 C 8,5 C 48 % 1023,1 hPa 0,0 l/m 22,9 km/h (4 Bft) O67.5 85 0 min 395 lux 0 W/m
13.03.2015 18:34 7,7 C 6,3 C 8,5 C 48 % 1024,1 hPa 0,0 l/m 28,0 km/h (5 Bft) O22.5 85 0 min 26 lux 0 W/m
13.03.2015 18:39 7,6 C 6,3 C 8,5 C 48 % 1024,1 hPa 0,0 l/m 20,0 km/h (4 Bft) O45 85 0 min 9 lux 0 W/m
13.03.2015 18:44 7,6 C 6,3 C 8,4 C 48 % 1024,1 hPa 0,0 l/m 23,7 km/h (4 Bft) O45 90 0 min 4 lux 0 W/m
13.03.2015 18:49 7,6 C 6,2 C 8,4 C 47 % 1024,1 hPa 0,0 l/m 24,4 km/h (4 Bft) O45 85 0 min 1 lux 0 W/m
13.03.2015 18:54 7,7 C 6,3 C 8,5 C 48 % 1024,1 hPa 0,0 l/m 28,0 km/h (5 Bft) O22.5 85 0 min 26 lux 0 W/m
13.03.2015 18:59 7,6 C 6,3 C 8,5 C 48 % 1024,1 hPa 0,0 l/m 20,0 km/h (4 Bft) O45 85 0 min 9 lux 0 W/m
13.03.2015 19:04 7,6 C 6,3 C 8,4 C 48 % 1024,1 hPa 0,0 l/m 23,7 km/h (4 Bft) O45 90 0 min 4 lux 0 W/m
13.03.2015 19:09 7,6 C 6,2 C 8,4 C 47 % 1024,1 hPa 0,0 l/m 24,4 km/h (4 Bft) O45 85 0 min 1 lux 0 W/m
13.03.2015 19:14 7,4 C 6,1 C 8,4 C 47 % 1024,1 hPa 0,0 l/m 21,8 km/h (4 Bft) O45 90 0 min 0 lux 0 W/m
13.03.2015 19:19 7,2 C 6,0 C 8,4 C 47 % 1024,1 hPa 0,0 l/m 20,7 km/h (4 Bft) O67.5 85 0 min 0 lux 0 W/m
13.03.2015 19:23 7,2 C 5,9 C 8,4 C 48 % 1024,1 hPa 0,0 l/m 18,9 km/h (3 Bft) O45 85 0 min 0 lux 0 W/m
13.03.2015 19:28 7,2 C 5,9 C 8,4 C 48 % 1024,1 hPa 0,0 l/m 17,7 km/h (3 Bft) O45 95 0 min 0 lux 0 W/m
13.03.2015 19:33 7,4 C 6,1 C 8,4 C 47 % 1024,1 hPa 0,0 l/m 21,8 km/h (4 Bft) O45 90 0 min 0 lux 0 W/m
13.03.2015 19:38 7,2 C 6,0 C 8,4 C 47 % 1024,1 hPa 0,0 l/m 20,7 km/h (4 Bft) O67.5 85 0 min 0 lux 0 W/m
13.03.2015 19:43 7,2 C 5,9 C 8,4 C 48 % 1024,1 hPa 0,0 l/m 18,9 km/h (3 Bft) O45 85 0 min 0 lux 0 W/m
13.03.2015 19:48 7,2 C 5,9 C 8,4 C 48 % 1024,1 hPa 0,0 l/m 17,7 km/h (3 Bft) O45 95 0 min 0 lux 0 W/m
13.03.2015 19:53 7,0 C 5,6 C 8,4 C 47 % 1024,1 hPa 0,0 l/m 17,8 km/h (3 Bft) O45 95 0 min 0 lux 0 W/m
13.03.2015 19:58 7,0 C 5,6 C 8,4 C 47 % 1024,1 hPa 0,0 l/m 23,8 km/h (4 Bft) O45 90 0 min 0 lux 0 W/m
13.03.2015 20:03 6,9 C 5,5 C 8,4 C 47 % 1024,1 hPa 0,0 l/m 19,5 km/h (3 Bft) O45 90 0 min 0 lux 0 W/m
13.03.2015 20:08 6,9 C 5,5 C 8,4 C 47 % 1024,1 hPa 0,0 l/m 20,2 km/h (4 Bft) O67.5 80 0 min 0 lux 0 W/m
13.03.2015 20:13 7,0 C 5,6 C 8,4 C 47 % 1024,1 hPa 0,0 l/m 17,8 km/h (3 Bft) O45 95 0 min 0 lux 0 W/m
13.03.2015 20:18 7,0 C 5,6 C 8,4 C 47 % 1024,1 hPa 0,0 l/m 23,8 km/h (4 Bft) O45 90 0 min 0 lux 0 W/m
13.03.2015 20:23 6,9 C 5,5 C 8,4 C 47 % 1024,1 hPa 0,0 l/m 19,5 km/h (3 Bft) O45 90 0 min 0 lux 0 W/m
13.03.2015 20:28 6,9 C 5,5 C 8,4 C 47 % 1024,1 hPa 0,0 l/m 20,2 km/h (4 Bft) O67.5 80 0 min 0 lux 0 W/m
13.03.2015 20:34 6,7 C 5,1 C 8,4 C 47 % 1025,1 hPa 0,0 l/m 23,6 km/h (4 Bft) O-NO22.5 70 0 min 0 lux 0 W/m
13.03.2015 20:39 6,5 C 4,9 C 8,4 C 47 % 1025,1 hPa 0,0 l/m 22,0 km/h (4 Bft) O45 85 0 min 0 lux 0 W/m
13.03.2015 20:44 6,5 C 4,6 C 8,4 C 48 % 1025,1 hPa 0,0 l/m 22,5 km/h (4 Bft) O-NO22.5 75 0 min 0 lux 0 W/m
13.03.2015 20:49 6,5 C 4,5 C 8,4 C 48 % 1025,1 hPa 0,0 l/m 25,5 km/h (4 Bft) O45 80 0 min 0 lux 0 W/m
13.03.2015 20:54 6,7 C 5,1 C 8,4 C 47 % 1025,1 hPa 0,0 l/m 23,6 km/h (4 Bft) O-NO22.5 70 0 min 0 lux 0 W/m
13.03.2015 20:59 6,5 C 4,9 C 8,4 C 47 % 1025,1 hPa 0,0 l/m 22,0 km/h (4 Bft) O45 85 0 min 0 lux 0 W/m
13.03.2015 21:04 6,5 C 4,6 C 8,4 C 48 % 1025,1 hPa 0,0 l/m 22,5 km/h (4 Bft) O-NO22.5 75 0 min 0 lux 0 W/m
13.03.2015 21:09 6,5 C 4,5 C 8,4 C 48 % 1025,1 hPa 0,0 l/m 25,5 km/h (4 Bft) O45 80 0 min 0 lux 0 W/m
13.03.2015 21:14 6,1 C 3,9 C 8,4 C 51 % 1025,1 hPa 0,0 l/m 21,3 km/h (4 Bft) O22.5 85 0 min 0 lux 0 W/m
13.03.2015 21:19 5,9 C 3,6 C 8,4 C 51 % 1025,1 hPa 0,0 l/m 27,8 km/h (5 Bft) O22.5 85 0 min 0 lux 0 W/m
13.03.2015 21:24 5,9 C 2,9 C 8,4 C 51 % 1025,1 hPa 0,0 l/m 28,0 km/h (5 Bft) O45 85 0 min 0 lux 0 W/m
13.03.2015 21:29 5,8 C 2,7 C 8,3 C 52 % 1025,1 hPa 0,0 l/m 19,5 km/h (3 Bft) O45 95 0 min 0 lux 0 W/m
13.03.2015 21:34 6,1 C 3,9 C 8,4 C 51 % 1025,1 hPa 0,0 l/m 21,3 km/h (4 Bft) O22.5 85 0 min 0 lux 0 W/m
13.03.2015 21:39 5,9 C 3,6 C 8,4 C 51 % 1025,1 hPa 0,0 l/m 27,8 km/h (5 Bft) O22.5 85 0 min 0 lux 0 W/m
13.03.2015 21:44 5,9 C 2,9 C 8,4 C 51 % 1025,1 hPa 0,0 l/m 28,0 km/h (5 Bft) O45 85 0 min 0 lux 0 W/m
13.03.2015 21:49 5,8 C 2,7 C 8,3 C 52 % 1025,1 hPa 0,0 l/m 19,5 km/h (3 Bft) O45 95 0 min 0 lux 0 W/m
13.03.2015 21:54 5,3 C 1,8 C 8,3 C 54 % 1025,1 hPa 0,0 l/m 14,6 km/h (3 Bft) O45 80 0 min 0 lux 0 W/m
13.03.2015 21:59 5,2 C 1,7 C 8,3 C 54 % 1025,1 hPa 0,0 l/m 16,6 km/h (3 Bft) O-NO22.5 70 0 min 0 lux 0 W/m
13.03.2015 22:04 5,1 C 1,6 C 8,3 C 55 % 1025,1 hPa 0,0 l/m 16,6 km/h (3 Bft) O-NO22.5 70 0 min 0 lux 0 W/m
13.03.2015 22:09 4,9 C 1,4 C 8,3 C 55 % 1025,2 hPa 0,0 l/m 16,1 km/h (3 Bft) O22.5 90 0 min 0 lux 0 W/m
13.03.2015 22:14 5,3 C 1,8 C 8,3 C 54 % 1025,1 hPa 0,0 l/m 14,6 km/h (3 Bft) O45 80 0 min 0 lux 0 W/m
13.03.2015 22:19 5,2 C 1,7 C 8,3 C 54 % 1025,1 hPa 0,0 l/m 16,6 km/h (3 Bft) O-NO22.5 70 0 min 0 lux 0 W/m
13.03.2015 22:24 5,1 C 1,6 C 8,3 C 55 % 1025,1 hPa 0,0 l/m 16,6 km/h (3 Bft) O-NO22.5 70 0 min 0 lux 0 W/m
13.03.2015 22:29 4,9 C 1,4 C 8,3 C 55 % 1025,2 hPa 0,0 l/m 16,1 km/h (3 Bft) O22.5 90 0 min 0 lux 0 W/m
13.03.2015 22:34 4,6 C 0,8 C 8,3 C 57 % 1025,2 hPa 0,0 l/m 21,1 km/h (4 Bft) O45 85 0 min 0 lux 0 W/m
13.03.2015 22:39 4,5 C 0,8 C 8,3 C 57 % 1025,2 hPa 0,0 l/m 19,1 km/h (3 Bft) O22.5 85 0 min 0 lux 0 W/m
13.03.2015 22:44 4,5 C 0,8 C 8,3 C 57 % 1025,2 hPa 0,0 l/m 17,0 km/h (3 Bft) O45 80 0 min 0 lux 0 W/m
13.03.2015 22:49 4,4 C 0,9 C 8,3 C 57 % 1025,2 hPa 0,0 l/m 17,3 km/h (3 Bft) O67.5 90 0 min 0 lux 0 W/m
13.03.2015 22:54 4,6 C 0,8 C 8,3 C 57 % 1025,2 hPa 0,0 l/m 21,1 km/h (4 Bft) O45 85 0 min 0 lux 0 W/m
13.03.2015 22:59 4,5 C 0,8 C 8,3 C 57 % 1025,2 hPa 0,0 l/m 19,1 km/h (3 Bft) O22.5 85 0 min 0 lux 0 W/m
13.03.2015 23:04 4,5 C 0,8 C 8,3 C 57 % 1025,2 hPa 0,0 l/m 17,0 km/h (3 Bft) O45 80 0 min 0 lux 0 W/m
13.03.2015 23:09 4,4 C 0,9 C 8,3 C 57 % 1025,2 hPa 0,0 l/m 17,3 km/h (3 Bft) O67.5 90 0 min 0 lux 0 W/m
13.03.2015 23:14 4,4 C 0,9 C 8,3 C 57 % 1025,2 hPa 0,0 l/m 17,3 km/h (3 Bft) O22.5 90 0 min 0 lux 0 W/m
13.03.2015 23:19 4,4 C 0,9 C 8,3 C 57 % 1025,2 hPa 0,0 l/m 20,0 km/h (4 Bft) O45 90 0 min 0 lux 0 W/m
13.03.2015 23:24 4,4 C 1,0 C 8,3 C 57 % 1025,2 hPa 0,0 l/m 15,0 km/h (3 Bft) O45 90 0 min 0 lux 0 W/m
13.03.2015 23:29 4,3 C 0,9 C 8,3 C 57 % 1025,2 hPa 0,0 l/m 19,6 km/h (3 Bft) O22.5 85 0 min 0 lux 0 W/m
13.03.2015 23:34 4,4 C 0,9 C 8,3 C 57 % 1025,2 hPa 0,0 l/m 17,3 km/h (3 Bft) O22.5 90 0 min 0 lux 0 W/m
13.03.2015 23:39 4,4 C 0,9 C 8,3 C 57 % 1025,2 hPa 0,0 l/m 20,0 km/h (4 Bft) O45 90 0 min 0 lux 0 W/m
13.03.2015 23:44 4,4 C 1,0 C 8,3 C 57 % 1025,2 hPa 0,0 l/m 15,0 km/h (3 Bft) O45 90 0 min 0 lux 0 W/m
13.03.2015 23:49 4,3 C 0,9 C 8,3 C 57 % 1025,2 hPa 0,0 l/m 19,6 km/h (3 Bft) O22.5 85 0 min 0 lux 0 W/m
13.03.2015 23:54 4,7 C 1,2 C 8,3 C 59 % 1025,2 hPa 0,0 l/m 9,6 km/h (2 Bft) O-NO22.5 60 0 min 0 lux 0 W/m
13.03.2015 23:59 4,7 C 1,2 C 8,3 C 60 % 1026,2 hPa 0,0 l/m 19,6 km/h (3 Bft) O-NO22.5 60 0 min 0 lux 0 W/m
_ Min-Zeit 06:08 05:54 10:34 16:34 14:04 - 01:29 - - - - -
Minimum _ 0,7 C -3,6 C 8,1 C 44 % 1023,0 hPa - 0,0 km/h (0 Bft) - - - - -
_ Max-Zeit 14:04 11:19 00:03 07:13 04:44 00:03 18:34 - - 07:19 12:48 12:48
Maximum _ 10,5 C 34,0 C 9,0 C 84 % 1026,2 hPa 0,0 l/m 28,0 km/h
O (5 Bft)
- - 6 min 67,0 klux 458 W/m
Durchschnitt _ 5,6 C 8,5 C 8,5 C 62 % 1024,7 hPa #0,0 l/m 13,0 km/h (3 Bft) O - #7:21 h 14,8 klux 212 W/m